首页
METAR-TAF:

METAR-TAF

机场 :

奧倫堡特森特拉尼機場

奥伦堡, 俄罗斯

纬度: 51-46-48N, 经度: 055-07-12E, 海拔: 109米

当前天气观测

该预报发布于25分钟前的20:00 UTC
风速6节,风向
温度 0°C
湿度 86%
气压 1027 hPa
能见度10公里或以上
1500米以下无云,无积雨云

METAR: UWOO 282000Z 09003MPS CAVOK 00/M02 Q1027 R08/CLRD65 NOSIG RMK QFE759/1012

时间: 01:25 (20:25 UTC)

预报

该预报发布于3小时和35分钟前的16:50 UTC
预报有效从28日的 18点(UTC)到 29日的 18点(UTC)
风速8节,风向东转东北,有时为19节阵风
能见度10公里或以上
散云层高于1600英尺
短暂存在
从 28日的 18点(UTC)到 29日的 06点(UTC)
风速6节,风向东转东南,有时为16节阵风
能見度: 0300
冻雾
成为
从 29日的 06点(UTC)到 29日的 08点(UTC)
风速12节,风向南转南东,有时为23节阵风

TAF: UWOO 281650Z 2818/2918 07004G10MPS 9999 SCT016 TX12/2911Z TNM02/2903Z TEMPO 2818/2906 11003G08MPS 0300 FZFG BECMG 2906/2908 15006G12MPS

超过4000个机场的气象观测和天气预报(METAR&TAF报告)。

可查询的气象台以黄色和红色小点在地图上表示。

将鼠标移到小点上方,可查看气象台名称。

然后点击查看天气观测和预报。

如需切换地图:点击带黑十字的绿色按钮放大地图;点击带横线的绿色按钮缩小地图;或者点击绿色箭头查看邻近地区的地图。


METAR-TAF: